Tipton, Wyoming
Current Conditions -  °F | °C
As of 6:53 AM on Thursday 30 Oct 2014 (Local Time) from KRWL Reporting Station
Clear Clear  
Wind Chill: 28°   Ceiling: Unl
Heat Index: 33°   Visibility: 10mi
Dew Point: 24°   Wind: 6mph
Humidity: 70%   Direction: NA
Pressure: 30.37"   Gusts: NA
Location:  41.6289°N, 108.096°W
Report Text: KRWL 301253Z AUTO VRB05KT 10SM CLR 01/M04 A3037 RMK AO2 SLP262 T00061044
Loading
Personal Weather Stations






























Interactive Weather Map
Tropical Storm Tracking
New forecast layout! Learn more

10-Day Weather Forecast

Advertisements
Track Severe Weather on mobile